sensor_id;sensor_type;location;lat;lon;timestamp;pressure;altitude;pressure_sealevel;temperature;humidity
60019;BME280;45870;42.528;26.740;2024-01-15T00:02:07;99300.38;;;5.93;39.12
60019;BME280;45870;42.528;26.740;2024-01-15T00:04:36;99298.16;;;5.06;40.13
60019;BME280;45870;42.528;26.740;2024-01-15T00:07:02;99287.34;;;5.52;39.22
60019;BME280;45870;42.528;26.740;2024-01-15T00:09:28;99292.25;;;5.62;38.84
60019;BME280;45870;42.528;26.740;2024-01-15T00:11:53;99294.75;;;5.50;39.13
60019;BME280;45870;42.528;26.740;2024-01-15T00:14:18;99282.63;;;5.47;38.26
60019;BME280;45870;42.528;26.740;2024-01-15T00:16:45;99277.75;;;5.18;39.06
60019;BME280;45870;42.528;26.740;2024-01-15T00:19:10;99285.69;;;5.51;38.79
60019;BME280;45870;42.528;26.740;2024-01-15T00:21:36;99288.56;;;5.49;38.83
60019;BME280;45870;42.528;26.740;2024-01-15T00:24:01;99293.91;;;5.49;38.48
60019;BME280;45870;42.528;26.740;2024-01-15T00:26:27;99295.31;;;5.65;38.08
60019;BME280;45870;42.528;26.740;2024-01-15T00:28:52;99290.81;;;5.52;38.32
60019;BME280;45870;42.528;26.740;2024-01-15T00:31:17;99290.31;;;5.18;38.55
60019;BME280;45870;42.528;26.740;2024-01-15T00:33:43;99295.78;;;5.42;38.18
60019;BME280;45870;42.528;26.740;2024-01-15T00:36:08;99290.28;;;5.24;37.86
60019;BME280;45870;42.528;26.740;2024-01-15T00:38:34;99300.41;;;5.09;37.86
60019;BME280;45870;42.528;26.740;2024-01-15T00:40:59;99294.97;;;5.42;36.94
60019;BME280;45870;42.528;26.740;2024-01-15T00:43:25;99290.78;;;4.82;38.28
60019;BME280;45870;42.528;26.740;2024-01-15T00:45:50;99288.31;;;4.80;38.44
60019;BME280;45870;42.528;26.740;2024-01-15T00:48:16;99291.38;;;4.58;38.29
60019;BME280;45870;42.528;26.740;2024-01-15T00:50:41;99296.34;;;4.61;38.71
60019;BME280;45870;42.528;26.740;2024-01-15T00:53:06;99282.97;;;4.67;38.51
60019;BME280;45870;42.528;26.740;2024-01-15T00:55:32;99291.97;;;3.53;40.82
60019;BME280;45870;42.528;26.740;2024-01-15T00:57:57;99283.13;;;4.13;40.68
60019;BME280;45870;42.528;26.740;2024-01-15T01:00:23;99277.84;;;4.46;39.73
60019;BME280;45870;42.528;26.740;2024-01-15T01:02:48;99278.88;;;4.78;38.79
60019;BME280;45870;42.528;26.740;2024-01-15T01:05:13;99283.78;;;4.41;38.69
60019;BME280;45870;42.528;26.740;2024-01-15T01:07:39;99282.13;;;4.40;39.32
60019;BME280;45870;42.528;26.740;2024-01-15T01:10:04;99282.88;;;4.01;40.58
60019;BME280;45870;42.528;26.740;2024-01-15T01:12:30;99290.38;;;4.39;39.82
60019;BME280;45870;42.528;26.740;2024-01-15T01:14:55;99271.22;;;4.68;39.60
60019;BME280;45870;42.528;26.740;2024-01-15T01:17:21;99280.91;;;4.43;38.84
60019;BME280;45870;42.528;26.740;2024-01-15T01:19:47;99278.66;;;4.46;38.57
60019;BME280;45870;42.528;26.740;2024-01-15T01:22:12;99278.44;;;4.22;39.70
60019;BME280;45870;42.528;26.740;2024-01-15T01:24:38;99277.00;;;4.32;38.89
60019;BME280;45870;42.528;26.740;2024-01-15T01:27:03;99278.84;;;4.38;39.57
60019;BME280;45870;42.528;26.740;2024-01-15T01:29:28;99276.38;;;4.24;38.34
60019;BME280;45870;42.528;26.740;2024-01-15T01:31:54;99283.78;;;4.28;38.82
60019;BME280;45870;42.528;26.740;2024-01-15T01:34:19;99280.28;;;4.28;39.70
60019;BME280;45870;42.528;26.740;2024-01-15T01:36:45;99281.94;;;4.48;39.05
60019;BME280;45870;42.528;26.740;2024-01-15T01:39:10;99061.81;;;3.05;39.23
60019;BME280;45870;42.528;26.740;2024-01-15T01:41:38;99284.19;;;4.38;39.37
60019;BME280;45870;42.528;26.740;2024-01-15T01:44:04;99274.75;;;4.56;38.51
60019;BME280;45870;42.528;26.740;2024-01-15T01:46:29;99271.25;;;4.75;38.88
60019;BME280;45870;42.528;26.740;2024-01-15T01:48:56;99277.41;;;4.88;39.09
60019;BME280;45870;42.528;26.740;2024-01-15T01:51:22;99273.50;;;4.65;39.38
60019;BME280;45870;42.528;26.740;2024-01-15T01:53:48;99277.22;;;4.77;39.78
60019;BME280;45870;42.528;26.740;2024-01-15T01:56:14;99273.09;;;4.87;39.26
60019;BME280;45870;42.528;26.740;2024-01-15T01:58:39;99269.41;;;4.62;39.75
60019;BME280;45870;42.528;26.740;2024-01-15T02:01:05;99271.88;;;4.64;39.56
60019;BME280;45870;42.528;26.740;2024-01-15T02:03:31;99269.00;;;4.78;39.33
60019;BME280;45870;42.528;26.740;2024-01-15T02:05:56;99273.28;;;4.73;40.04
60019;BME280;45870;42.528;26.740;2024-01-15T02:08:22;99268.34;;;4.37;38.97
60019;BME280;45870;42.528;26.740;2024-01-15T02:10:47;99261.38;;;4.36;39.57
60019;BME280;45870;42.528;26.740;2024-01-15T02:13:13;99254.19;;;4.49;39.58
60019;BME280;45870;42.528;26.740;2024-01-15T02:15:38;99261.16;;;4.37;39.53
60019;BME280;45870;42.528;26.740;2024-01-15T02:18:05;99253.75;;;4.20;38.88
60019;BME280;45870;42.528;26.740;2024-01-15T02:20:32;99255.38;;;4.01;39.89
60019;BME280;45870;42.528;26.740;2024-01-15T02:23:08;99258.84;;;4.01;39.30
60019;BME280;45870;42.528;26.740;2024-01-15T02:25:35;99256.41;;;4.07;40.30
60019;BME280;45870;42.528;26.740;2024-01-15T02:28:01;99255.19;;;4.22;39.96
60019;BME280;45870;42.528;26.740;2024-01-15T02:30:26;99256.84;;;4.30;39.65
60019;BME280;45870;42.528;26.740;2024-01-15T02:32:52;99256.59;;;4.05;40.49
60019;BME280;45870;42.528;26.740;2024-01-15T02:35:18;99250.88;;;4.15;39.62
60019;BME280;45870;42.528;26.740;2024-01-15T02:37:43;99245.13;;;4.11;39.96
60019;BME280;45870;42.528;26.740;2024-01-15T02:40:09;99242.03;;;4.08;39.04
60019;BME280;45870;42.528;26.740;2024-01-15T02:42:34;99238.31;;;3.95;39.22
60019;BME280;45870;42.528;26.740;2024-01-15T02:45:00;99235.63;;;3.89;39.45
60019;BME280;45870;42.528;26.740;2024-01-15T02:47:25;99239.78;;;4.11;38.35
60019;BME280;45870;42.528;26.740;2024-01-15T02:49:50;99229.88;;;3.79;39.66
60019;BME280;45870;42.528;26.740;2024-01-15T02:52:16;99234.25;;;4.39;39.40
60019;BME280;45870;42.528;26.740;2024-01-15T02:54:41;99221.91;;;4.51;38.84
60019;BME280;45870;42.528;26.740;2024-01-15T02:57:07;99217.19;;;4.53;37.62
60019;BME280;45870;42.528;26.740;2024-01-15T02:59:32;99231.19;;;4.29;38.56
60019;BME280;45870;42.528;26.740;2024-01-15T03:01:57;99226.63;;;4.03;39.26
60019;BME280;45870;42.528;26.740;2024-01-15T03:04:23;99228.88;;;3.86;39.66
60019;BME280;45870;42.528;26.740;2024-01-15T03:06:48;99218.59;;;3.83;40.05
60019;BME280;45870;42.528;26.740;2024-01-15T03:09:14;99220.63;;;3.94;40.37
60019;BME280;45870;42.528;26.740;2024-01-15T03:11:39;99221.69;;;4.26;39.24
60019;BME280;45870;42.528;26.740;2024-01-15T03:14:05;99217.75;;;3.83;40.20
60019;BME280;45870;42.528;26.740;2024-01-15T03:16:30;99214.88;;;3.78;40.02
60019;BME280;45870;42.528;26.740;2024-01-15T03:18:55;99211.63;;;4.15;39.08
60019;BME280;45870;42.528;26.740;2024-01-15T03:21:21;99203.41;;;4.10;39.85
60019;BME280;45870;42.528;26.740;2024-01-15T03:23:46;99198.28;;;4.48;39.99
60019;BME280;45870;42.528;26.740;2024-01-15T03:26:12;99192.94;;;4.28;40.17
60019;BME280;45870;42.528;26.740;2024-01-15T03:28:37;99189.22;;;4.56;39.21
60019;BME280;45870;42.528;26.740;2024-01-15T03:31:02;99195.78;;;3.87;40.29
60019;BME280;45870;42.528;26.740;2024-01-15T03:33:28;99187.41;;;4.10;39.90
60019;BME280;45870;42.528;26.740;2024-01-15T03:35:53;99187.59;;;4.35;39.73
60019;BME280;45870;42.528;26.740;2024-01-15T03:38:19;99192.94;;;4.15;38.88
60019;BME280;45870;42.528;26.740;2024-01-15T03:40:44;99188.44;;;4.35;38.32
60019;BME280;45870;42.528;26.740;2024-01-15T03:43:09;99192.06;;;3.75;39.69
60019;BME280;45870;42.528;26.740;2024-01-15T03:45:35;99207.09;;;3.96;39.77
60019;BME280;45870;42.528;26.740;2024-01-15T03:48:00;99193.34;;;4.45;38.77
60019;BME280;45870;42.528;26.740;2024-01-15T03:50:26;99196.63;;;4.34;38.81
60019;BME280;45870;42.528;26.740;2024-01-15T03:52:51;99190.06;;;4.23;38.35
60019;BME280;45870;42.528;26.740;2024-01-15T03:55:16;99207.31;;;4.08;38.28
60019;BME280;45870;42.528;26.740;2024-01-15T03:57:42;99200.75;;;4.10;38.65
60019;BME280;45870;42.528;26.740;2024-01-15T04:00:07;99202.50;;;3.64;40.28
60019;BME280;45870;42.528;26.740;2024-01-15T04:02:33;99204.31;;;3.43;39.43
60019;BME280;45870;42.528;26.740;2024-01-15T04:04:58;99198.25;;;3.95;38.38
60019;BME280;45870;42.528;26.740;2024-01-15T04:07:24;99200.47;;;3.66;38.01
60019;BME280;45870;42.528;26.740;2024-01-15T04:09:49;99198.28;;;2.25;42.19
60019;BME280;45870;42.528;26.740;2024-01-15T04:12:14;99197.72;;;2.58;42.95
60019;BME280;45870;42.528;26.740;2024-01-15T04:14:40;99198.59;;;3.60;39.96
60019;BME280;45870;42.528;26.740;2024-01-15T04:17:05;99201.91;;;2.39;41.31
60019;BME280;45870;42.528;26.740;2024-01-15T04:19:31;99206.75;;;2.57;42.82
60019;BME280;45870;42.528;26.740;2024-01-15T04:21:56;99211.81;;;2.51;43.89
60019;BME280;45870;42.528;26.740;2024-01-15T04:24:21;99212.88;;;2.29;43.72
60019;BME280;45870;42.528;26.740;2024-01-15T04:26:47;99203.66;;;3.41;41.64
60019;BME280;45870;42.528;26.740;2024-01-15T04:29:12;99202.94;;;3.80;40.93
60019;BME280;45870;42.528;26.740;2024-01-15T04:31:38;99212.44;;;4.16;40.31
60019;BME280;45870;42.528;26.740;2024-01-15T04:34:03;99213.06;;;4.31;39.11
60019;BME280;45870;42.528;26.740;2024-01-15T04:36:28;99220.44;;;3.83;41.52
60019;BME280;45870;42.528;26.740;2024-01-15T04:38:54;99211.63;;;4.02;41.38
60019;BME280;45870;42.528;26.740;2024-01-15T04:41:19;99211.41;;;4.36;40.63
60019;BME280;45870;42.528;26.740;2024-01-15T04:43:45;99228.09;;;4.25;39.13
60019;BME280;45870;42.528;26.740;2024-01-15T04:46:10;99224.38;;;4.07;40.12
60019;BME280;45870;42.528;26.740;2024-01-15T04:48:36;99212.47;;;4.35;39.81
60019;BME280;45870;42.528;26.740;2024-01-15T04:51:03;99211.63;;;4.48;38.35
60019;BME280;45870;42.528;26.740;2024-01-15T04:53:29;99215.31;;;4.67;39.10
60019;BME280;45870;42.528;26.740;2024-01-15T04:55:54;99213.63;;;3.80;38.89
60019;BME280;45870;42.528;26.740;2024-01-15T04:58:20;99216.44;;;3.59;40.33
60019;BME280;45870;42.528;26.740;2024-01-15T05:00:45;99216.06;;;3.62;40.16
60019;BME280;45870;42.528;26.740;2024-01-15T05:03:11;99223.75;;;4.05;39.81
60019;BME280;45870;42.528;26.740;2024-01-15T05:05:36;99221.63;;;3.80;39.31
60019;BME280;45870;42.528;26.740;2024-01-15T05:08:02;99221.22;;;3.77;40.23
60019;BME280;45870;42.528;26.740;2024-01-15T05:10:27;99223.31;;;3.94;38.17
60019;BME280;45870;42.528;26.740;2024-01-15T05:12:53;99224.19;;;4.21;38.19
60019;BME280;45870;42.528;26.740;2024-01-15T05:15:18;99213.88;;;2.84;40.48
60019;BME280;45870;42.528;26.740;2024-01-15T05:17:43;99221.78;;;3.05;40.22
60019;BME280;45870;42.528;26.740;2024-01-15T05:20:09;99216.25;;;3.54;39.74
60019;BME280;45870;42.528;26.740;2024-01-15T05:22:35;99211.56;;;3.15;40.23
60019;BME280;45870;42.528;26.740;2024-01-15T05:25:00;99207.44;;;3.67;39.26
60019;BME280;45870;42.528;26.740;2024-01-15T05:27:25;99203.50;;;3.56;38.12
60019;BME280;45870;42.528;26.740;2024-01-15T05:29:51;99196.50;;;3.42;39.50
60019;BME280;45870;42.528;26.740;2024-01-15T05:32:16;99194.44;;;3.37;38.67
60019;BME280;45870;42.528;26.740;2024-01-15T05:34:42;99189.75;;;3.59;39.21
60019;BME280;45870;42.528;26.740;2024-01-15T05:37:07;99183.78;;;1.58;43.50
60019;BME280;45870;42.528;26.740;2024-01-15T05:39:32;99189.56;;;3.07;41.35
60019;BME280;45870;42.528;26.740;2024-01-15T05:41:58;99193.91;;;3.75;41.47
60019;BME280;45870;42.528;26.740;2024-01-15T05:44:24;99186.34;;;3.78;42.23
60019;BME280;45870;42.528;26.740;2024-01-15T05:46:50;99188.97;;;3.59;43.46
60019;BME280;45870;42.528;26.740;2024-01-15T05:49:15;99181.16;;;3.03;45.28
60019;BME280;45870;42.528;26.740;2024-01-15T05:51:40;99181.03;;;4.11;42.27
60019;BME280;45870;42.528;26.740;2024-01-15T05:54:06;99180.81;;;4.32;41.26
60019;BME280;45870;42.528;26.740;2024-01-15T05:56:31;99191.47;;;4.59;41.96
60019;BME280;45870;42.528;26.740;2024-01-15T05:58:56;99179.53;;;4.81;40.58
60019;BME280;45870;42.528;26.740;2024-01-15T06:01:22;99184.47;;;3.72;43.04
60019;BME280;45870;42.528;26.740;2024-01-15T06:03:47;99185.94;;;4.40;41.27
60019;BME280;45870;42.528;26.740;2024-01-15T06:06:13;99178.31;;;4.64;41.08
60019;BME280;45870;42.528;26.740;2024-01-15T06:08:38;99188.31;;;5.01;40.40
60019;BME280;45870;42.528;26.740;2024-01-15T06:11:04;99182.88;;;5.27;39.66
60019;BME280;45870;42.528;26.740;2024-01-15T06:13:30;99184.28;;;5.68;40.05
60019;BME280;45870;42.528;26.740;2024-01-15T06:15:55;99192.75;;;5.65;39.84
60019;BME280;45870;42.528;26.740;2024-01-15T06:18:20;99189.88;;;5.22;40.94
60019;BME280;45870;42.528;26.740;2024-01-15T06:20:46;99187.50;;;5.89;40.37
60019;BME280;45870;42.528;26.740;2024-01-15T06:23:11;99183.72;;;6.71;38.11
60019;BME280;45870;42.528;26.740;2024-01-15T06:25:37;99186.38;;;6.28;38.98
60019;BME280;45870;42.528;26.740;2024-01-15T06:28:02;99185.56;;;6.52;39.01
60019;BME280;45870;42.528;26.740;2024-01-15T06:30:29;99186.03;;;6.68;38.38
60019;BME280;45870;42.528;26.740;2024-01-15T06:32:55;99185.03;;;6.19;40.17
60019;BME280;45870;42.528;26.740;2024-01-15T06:35:20;99182.59;;;6.11;40.49
60019;BME280;45870;42.528;26.740;2024-01-15T06:37:46;99187.84;;;6.24;40.60
60019;BME280;45870;42.528;26.740;2024-01-15T06:40:11;99195.56;;;6.14;40.45
60019;BME280;45870;42.528;26.740;2024-01-15T06:42:37;99193.22;;;6.24;40.95
60019;BME280;45870;42.528;26.740;2024-01-15T06:45:02;99197.22;;;6.15;41.58
60019;BME280;45870;42.528;26.740;2024-01-15T06:47:28;99207.56;;;6.61;40.73
60019;BME280;45870;42.528;26.740;2024-01-15T06:49:54;99207.53;;;7.22;40.94
60019;BME280;45870;42.528;26.740;2024-01-15T06:52:20;99222.41;;;8.56;38.79
60019;BME280;45870;42.528;26.740;2024-01-15T06:54:45;99217.03;;;8.67;37.37
60019;BME280;45870;42.528;26.740;2024-01-15T06:57:10;99220.94;;;9.46;36.16
60019;BME280;45870;42.528;26.740;2024-01-15T06:59:36;99207.88;;;9.26;36.14
60019;BME280;45870;42.528;26.740;2024-01-15T07:02:01;99205.34;;;10.49;36.22
60019;BME280;45870;42.528;26.740;2024-01-15T07:04:27;99202.72;;;9.65;35.88
60019;BME280;45870;42.528;26.740;2024-01-15T07:06:53;99199.16;;;9.76;35.98
60019;BME280;45870;42.528;26.740;2024-01-15T07:09:18;99195.16;;;10.51;34.95
60019;BME280;45870;42.528;26.740;2024-01-15T07:11:44;99208.69;;;10.73;35.13
60019;BME280;45870;42.528;26.740;2024-01-15T07:14:10;99201.34;;;10.07;35.45
60019;BME280;45870;42.528;26.740;2024-01-15T07:16:35;99208.59;;;10.18;35.38
60019;BME280;45870;42.528;26.740;2024-01-15T07:19:01;99200.53;;;10.07;35.67
60019;BME280;45870;42.528;26.740;2024-01-15T07:21:26;99194.47;;;9.99;35.95
60019;BME280;45870;42.528;26.740;2024-01-15T07:23:52;99186.84;;;8.77;38.28
60019;BME280;45870;42.528;26.740;2024-01-15T07:26:17;99178.97;;;7.28;42.30
60019;BME280;45870;42.528;26.740;2024-01-15T07:28:42;99173.78;;;6.53;43.88
60019;BME280;45870;42.528;26.740;2024-01-15T07:31:08;99171.66;;;8.47;40.51
60019;BME280;45870;42.528;26.740;2024-01-15T07:33:34;99172.09;;;8.91;38.70
60019;BME280;45870;42.528;26.740;2024-01-15T07:35:59;99173.38;;;9.80;37.08
60019;BME280;45870;42.528;26.740;2024-01-15T07:38:25;99169.91;;;9.68;38.39
60019;BME280;45870;42.528;26.740;2024-01-15T07:40:50;99174.13;;;11.30;33.80
60019;BME280;45870;42.528;26.740;2024-01-15T07:43:15;99178.16;;;11.98;32.67
60019;BME280;45870;42.528;26.740;2024-01-15T07:45:41;99179.53;;;10.53;34.31
60019;BME280;45870;42.528;26.740;2024-01-15T07:48:06;99177.75;;;9.69;35.87
60019;BME280;45870;42.528;26.740;2024-01-15T07:50:32;99178.72;;;11.08;34.64
60019;BME280;45870;42.528;26.740;2024-01-15T07:52:57;99182.19;;;10.70;33.69
60019;BME280;45870;42.528;26.740;2024-01-15T07:55:23;99187.94;;;12.04;32.60
60019;BME280;45870;42.528;26.740;2024-01-15T07:57:48;99178.94;;;11.07;33.71
60019;BME280;45870;42.528;26.740;2024-01-15T08:00:14;99179.59;;;8.77;37.79
60019;BME280;45870;42.528;26.740;2024-01-15T08:02:39;99186.47;;;9.60;36.10
60019;BME280;45870;42.528;26.740;2024-01-15T08:05:05;99184.28;;;9.45;37.34
60019;BME280;45870;42.528;26.740;2024-01-15T08:07:31;99202.00;;;7.83;40.05
60019;BME280;45870;42.528;26.740;2024-01-15T08:09:56;99204.97;;;7.45;41.91
60019;BME280;45870;42.528;26.740;2024-01-15T08:12:22;99186.84;;;5.49;44.83
60019;BME280;45870;42.528;26.740;2024-01-15T08:14:47;99191.94;;;6.02;45.37
60019;BME280;45870;42.528;26.740;2024-01-15T08:17:13;99187.78;;;6.31;43.31
60019;BME280;45870;42.528;26.740;2024-01-15T08:19:40;99193.34;;;6.36;43.71
60019;BME280;45870;42.528;26.740;2024-01-15T08:22:06;99192.34;;;6.30;44.71
60019;BME280;45870;42.528;26.740;2024-01-15T08:24:31;99206.75;;;8.11;41.59
60019;BME280;45870;42.528;26.740;2024-01-15T08:26:57;99194.66;;;9.13;39.83
60019;BME280;45870;42.528;26.740;2024-01-15T08:29:22;99188.63;;;6.31;44.84
60019;BME280;45870;42.528;26.740;2024-01-15T08:31:49;99198.53;;;5.99;46.65
60019;BME280;45870;42.528;26.740;2024-01-15T08:34:15;99184.81;;;7.07;44.30
60019;BME280;45870;42.528;26.740;2024-01-15T08:36:40;99183.53;;;6.23;45.76
60019;BME280;45870;42.528;26.740;2024-01-15T08:39:06;99193.09;;;6.37;45.09
60019;BME280;45870;42.528;26.740;2024-01-15T08:41:32;99186.97;;;5.68;46.50
60019;BME280;45870;42.528;26.740;2024-01-15T08:43:58;99176.94;;;6.26;46.25
60019;BME280;45870;42.528;26.740;2024-01-15T08:46:23;99171.66;;;6.80;44.44
60019;BME280;45870;42.528;26.740;2024-01-15T08:48:49;99178.06;;;5.74;48.04
60019;BME280;45870;42.528;26.740;2024-01-15T08:51:15;99164.81;;;7.02;45.47
60019;BME280;45870;42.528;26.740;2024-01-15T08:53:40;99167.38;;;6.30;47.26
60019;BME280;45870;42.528;26.740;2024-01-15T08:56:05;99165.31;;;7.29;44.11
60019;BME280;45870;42.528;26.740;2024-01-15T08:58:31;99170.22;;;7.92;44.21
60019;BME280;45870;42.528;26.740;2024-01-15T09:00:56;99177.47;;;6.77;47.01
60019;BME280;45870;42.528;26.740;2024-01-15T09:03:22;99155.50;;;7.83;44.90
60019;BME280;45870;42.528;26.740;2024-01-15T09:05:47;99154.56;;;7.89;45.19
60019;BME280;45870;42.528;26.740;2024-01-15T09:08:15;99152.03;;;7.94;44.87
60019;BME280;45870;42.528;26.740;2024-01-15T09:10:40;99154.56;;;7.77;43.89
60019;BME280;45870;42.528;26.740;2024-01-15T09:13:06;99140.03;;;8.08;44.99
60019;BME280;45870;42.528;26.740;2024-01-15T09:15:31;99117.34;;;10.27;40.53
60019;BME280;45870;42.528;26.740;2024-01-15T09:17:57;99114.66;;;11.25;37.94
60019;BME280;45870;42.528;26.740;2024-01-15T09:20:23;99102.81;;;10.88;37.95
60019;BME280;45870;42.528;26.740;2024-01-15T09:22:51;99083.59;;;11.54;37.04
60019;BME280;45870;42.528;26.740;2024-01-15T09:25:16;99076.28;;;12.09;35.53
60019;BME280;45870;42.528;26.740;2024-01-15T09:27:41;99080.19;;;10.50;37.68
60019;BME280;45870;42.528;26.740;2024-01-15T09:30:07;99082.91;;;10.34;39.33
60019;BME280;45870;42.528;26.740;2024-01-15T09:32:33;99080.91;;;9.96;39.36
60019;BME280;45870;42.528;26.740;2024-01-15T09:34:58;99079.22;;;8.77;42.66
60019;BME280;45870;42.528;26.740;2024-01-15T09:37:24;99074.19;;;7.76;45.70
60019;BME280;45870;42.528;26.740;2024-01-15T09:39:49;99066.94;;;9.21;43.30
60019;BME280;45870;42.528;26.740;2024-01-15T09:42:15;99054.72;;;8.15;44.92
60019;BME280;45870;42.528;26.740;2024-01-15T09:44:41;99058.84;;;8.92;43.24
60019;BME280;45870;42.528;26.740;2024-01-15T09:47:06;99063.84;;;10.07;41.74
60019;BME280;45870;42.528;26.740;2024-01-15T09:49:32;99062.66;;;8.10;45.56
60019;BME280;45870;42.528;26.740;2024-01-15T09:52:00;99057.63;;;8.60;46.21
60019;BME280;45870;42.528;26.740;2024-01-15T09:54:26;99047.78;;;9.95;43.64
60019;BME280;45870;42.528;26.740;2024-01-15T09:56:52;99040.19;;;7.81;48.00
60019;BME280;45870;42.528;26.740;2024-01-15T09:59:17;99034.94;;;8.44;47.91
60019;BME280;45870;42.528;26.740;2024-01-15T10:01:43;99033.94;;;7.34;48.92
60019;BME280;45870;42.528;26.740;2024-01-15T10:04:09;99035.09;;;8.89;46.74
60019;BME280;45870;42.528;26.740;2024-01-15T10:06:35;99038.63;;;9.18;46.58
60019;BME280;45870;42.528;26.740;2024-01-15T10:09:01;99034.09;;;9.07;46.24
60019;BME280;45870;42.528;26.740;2024-01-15T10:11:26;99030.38;;;10.20;43.94
60019;BME280;45870;42.528;26.740;2024-01-15T10:13:52;99028.88;;;10.89;42.57
60019;BME280;45870;42.528;26.740;2024-01-15T10:16:21;99022.13;;;9.15;45.06
60019;BME280;45870;42.528;26.740;2024-01-15T10:18:47;99017.59;;;11.19;42.08
60019;BME280;45870;42.528;26.740;2024-01-15T10:21:12;99010.69;;;9.86;46.00
60019;BME280;45870;42.528;26.740;2024-01-15T10:23:39;99000.22;;;11.36;41.67
60019;BME280;45870;42.528;26.740;2024-01-15T10:26:05;98992.91;;;11.95;40.35
60019;BME280;45870;42.528;26.740;2024-01-15T10:28:30;98988.09;;;11.44;41.80
60019;BME280;45870;42.528;26.740;2024-01-15T10:30:57;98993.72;;;11.37;40.82
60019;BME280;45870;42.528;26.740;2024-01-15T10:33:24;99000.94;;;10.78;42.28
60019;BME280;45870;42.528;26.740;2024-01-15T10:35:53;99005.59;;;11.10;41.66
60019;BME280;45870;42.528;26.740;2024-01-15T10:38:19;98994.50;;;11.06;41.87
60019;BME280;45870;42.528;26.740;2024-01-15T10:40:47;98993.25;;;12.09;39.47
60019;BME280;45870;42.528;26.740;2024-01-15T10:43:12;98991.50;;;13.02;37.47
60019;BME280;45870;42.528;26.740;2024-01-15T10:45:38;98987.84;;;12.09;39.63
60019;BME280;45870;42.528;26.740;2024-01-15T10:48:03;98976.94;;;12.46;38.12
60019;BME280;45870;42.528;26.740;2024-01-15T10:50:29;98983.56;;;11.49;40.22
60019;BME280;45870;42.528;26.740;2024-01-15T10:52:55;98969.34;;;12.38;37.99
60019;BME280;45870;42.528;26.740;2024-01-15T10:55:21;98960.72;;;11.99;39.36
60019;BME280;45870;42.528;26.740;2024-01-15T10:57:48;98949.28;;;11.87;38.88
60019;BME280;45870;42.528;26.740;2024-01-15T11:00:14;98944.91;;;11.17;38.88
60019;BME280;45870;42.528;26.740;2024-01-15T11:02:40;98933.69;;;12.61;36.22
60019;BME280;45870;42.528;26.740;2024-01-15T11:05:06;98937.66;;;13.76;34.54
60019;BME280;45870;42.528;26.740;2024-01-15T11:07:31;98932.88;;;12.56;36.41
60019;BME280;45870;42.528;26.740;2024-01-15T11:09:57;98925.44;;;13.84;34.56
60019;BME280;45870;42.528;26.740;2024-01-15T11:12:25;98916.94;;;14.90;33.00
60019;BME280;45870;42.528;26.740;2024-01-15T11:14:51;98918.94;;;13.80;35.13
60019;BME280;45870;42.528;26.740;2024-01-15T11:17:19;98912.75;;;13.19;36.68
60019;BME280;45870;42.528;26.740;2024-01-15T11:19:45;98918.00;;;14.45;34.64
60019;BME280;45870;42.528;26.740;2024-01-15T11:22:47;98905.94;;;13.82;35.72
60019;BME280;45870;42.528;26.740;2024-01-15T11:24:56;98906.78;;;13.22;36.38
60019;BME280;45870;42.528;26.740;2024-01-15T11:27:40;98909.75;;;13.61;37.11
60019;BME280;45870;42.528;26.740;2024-01-15T11:30:11;98900.00;;;13.14;36.58
60019;BME280;45870;42.528;26.740;2024-01-15T11:32:37;98900.81;;;13.20;36.83
60019;BME280;45870;42.528;26.740;2024-01-15T11:35:22;98898.91;;;13.71;35.33
60019;BME280;45870;42.528;26.740;2024-01-15T11:40:23;98893.97;;;12.77;36.50
60019;BME280;45870;42.528;26.740;2024-01-15T11:42:48;98889.75;;;12.34;37.75
60019;BME280;45870;42.528;26.740;2024-01-15T11:45:20;98890.44;;;12.04;37.76
60019;BME280;45870;42.528;26.740;2024-01-15T11:50:12;98894.66;;;12.42;37.19
60019;BME280;45870;42.528;26.740;2024-01-15T11:52:38;98873.63;;;12.84;36.19
60019;BME280;45870;42.528;26.740;2024-01-15T12:00:10;98860.38;;;13.69;34.94
60019;BME280;45870;42.528;26.740;2024-01-15T12:02:37;98857.19;;;13.21;35.29
60019;BME280;45870;42.528;26.740;2024-01-15T12:05:02;98863.00;;;14.09;33.53
60019;BME280;45870;42.528;26.740;2024-01-15T12:07:28;98860.84;;;14.01;33.92
60019;BME280;45870;42.528;26.740;2024-01-15T12:09:53;98857.47;;;13.40;34.81
60019;BME280;45870;42.528;26.740;2024-01-15T12:12:44;98866.84;;;13.83;34.35
60019;BME280;45870;42.528;26.740;2024-01-15T12:15:04;98858.56;;;13.19;34.98
60019;BME280;45870;42.528;26.740;2024-01-15T12:17:30;98852.03;;;13.35;35.29
60019;BME280;45870;42.528;26.740;2024-01-15T12:19:56;98850.03;;;12.55;36.74
60019;BME280;45870;42.528;26.740;2024-01-15T12:22:22;98847.13;;;11.15;38.53
60019;BME280;45870;42.528;26.740;2024-01-15T12:24:47;98853.66;;;12.03;38.26
60019;BME280;45870;42.528;26.740;2024-01-15T12:27:12;98857.97;;;11.57;39.93
60019;BME280;45870;42.528;26.740;2024-01-15T12:29:38;98857.38;;;11.13;39.19
60019;BME280;45870;42.528;26.740;2024-01-15T12:32:04;98852.16;;;12.37;37.44
60019;BME280;45870;42.528;26.740;2024-01-15T12:34:30;98856.91;;;13.13;35.43
60019;BME280;45870;42.528;26.740;2024-01-15T12:36:57;98851.31;;;12.27;36.82
60019;BME280;45870;42.528;26.740;2024-01-15T12:39:22;98853.69;;;12.13;37.73
60019;BME280;45870;42.528;26.740;2024-01-15T12:41:47;98850.16;;;10.92;40.24
60019;BME280;45870;42.528;26.740;2024-01-15T12:44:13;98848.44;;;10.81;40.07
60019;BME280;45870;42.528;26.740;2024-01-15T12:46:38;98843.06;;;11.54;39.53
60019;BME280;45870;42.528;26.740;2024-01-15T12:49:04;98844.94;;;11.49;39.16
60019;BME280;45870;42.528;26.740;2024-01-15T12:51:30;98840.66;;;12.05;37.80
60019;BME280;45870;42.528;26.740;2024-01-15T12:53:55;98838.50;;;12.07;37.76
60019;BME280;45870;42.528;26.740;2024-01-15T12:56:20;98839.81;;;12.77;36.84
60019;BME280;45870;42.528;26.740;2024-01-15T12:58:46;98832.06;;;12.18;37.43
60019;BME280;45870;42.528;26.740;2024-01-15T13:01:12;98833.50;;;12.41;37.50